createdAt,value
2023-08-21T00:01:55.210Z,6.35
2023-08-21T00:04:22.296Z,6.60
2023-08-21T00:06:49.419Z,5.93
2023-08-21T00:09:16.449Z,7.20
2023-08-21T00:11:43.864Z,6.47
2023-08-21T00:14:11.218Z,6.28
2023-08-21T00:16:38.280Z,6.45
2023-08-21T00:19:05.407Z,6.68
2023-08-21T00:21:32.527Z,6.80
2023-08-21T00:23:59.761Z,6.50
2023-08-21T00:26:26.893Z,6.65
2023-08-21T00:28:53.977Z,6.65
2023-08-21T00:31:21.038Z,6.80
2023-08-21T00:33:48.319Z,6.93
2023-08-21T00:36:17.286Z,6.95
2023-08-21T00:38:44.491Z,7.00
2023-08-21T00:41:11.583Z,6.90
2023-08-21T00:43:38.603Z,6.97
2023-08-21T00:46:05.991Z,6.47
2023-08-21T00:48:33.616Z,6.72
2023-08-21T00:51:00.799Z,7.53
2023-08-21T00:53:27.809Z,6.70
2023-08-21T00:55:55.132Z,7.75
2023-08-21T00:58:22.335Z,7.25
2023-08-21T01:00:52.958Z,7.25
2023-08-21T01:03:20.765Z,6.88
2023-08-21T01:05:48.363Z,6.80
2023-08-21T01:08:48.769Z,7.47
2023-08-21T01:11:56.960Z,6.95
2023-08-21T01:14:34.677Z,7.40
2023-08-21T01:17:06.134Z,7.60
2023-08-21T01:19:39.147Z,7.18
2023-08-21T01:22:06.428Z,7.53
2023-08-21T01:24:34.484Z,7.53
2023-08-21T01:27:02.090Z,7.35
2023-08-21T01:29:29.731Z,7.70
2023-08-21T01:32:07.270Z,7.45
2023-08-21T01:34:35.383Z,7.20
2023-08-21T01:37:03.289Z,6.88
2023-08-21T01:39:30.845Z,7.45
2023-08-21T01:41:59.261Z,7.28
2023-08-21T01:44:27.844Z,7.35
2023-08-21T01:46:55.136Z,7.60
2023-08-21T01:49:22.151Z,7.68
2023-08-21T01:51:49.414Z,7.22
2023-08-21T01:54:16.686Z,7.68
2023-08-21T01:56:43.777Z,7.95
2023-08-21T01:59:10.877Z,7.40
2023-08-21T02:01:37.970Z,7.63
2023-08-21T02:04:05.441Z,7.30
2023-08-21T02:06:32.531Z,7.43
2023-08-21T02:08:59.508Z,7.00
2023-08-21T02:11:26.700Z,7.43
2023-08-21T02:13:53.748Z,7.18
2023-08-21T02:16:22.841Z,7.35
2023-08-21T02:18:50.617Z,7.10
2023-08-21T02:21:17.838Z,8.23
2023-08-21T02:23:45.328Z,7.28
2023-08-21T02:26:12.592Z,7.35
2023-08-21T02:28:39.622Z,7.32
2023-08-21T02:31:10.188Z,7.70
2023-08-21T02:33:37.298Z,7.70
2023-08-21T02:36:04.913Z,7.22
2023-08-21T02:38:31.950Z,7.75
2023-08-21T02:40:59.110Z,7.30
2023-08-21T02:43:26.322Z,7.82
2023-08-21T02:45:53.352Z,7.90
2023-08-21T02:48:20.966Z,7.82
2023-08-21T02:50:48.114Z,7.75
2023-08-21T02:53:15.205Z,7.25
2023-08-21T02:55:42.295Z,7.65
2023-08-21T02:58:12.132Z,8.10
2023-08-21T03:00:39.289Z,7.68
2023-08-21T03:03:06.482Z,7.00
2023-08-21T03:05:33.533Z,7.55
2023-08-21T03:08:00.695Z,6.72
2023-08-21T03:10:29.653Z,7.88
2023-08-21T03:12:56.985Z,7.38
2023-08-21T03:15:24.044Z,7.57
2023-08-21T03:17:51.277Z,7.90
2023-08-21T03:20:19.020Z,7.57
2023-08-21T03:22:46.105Z,8.02
2023-08-21T03:25:13.284Z,7.50
2023-08-21T03:27:41.136Z,7.80
2023-08-21T03:30:10.452Z,8.45
2023-08-21T03:32:38.256Z,7.88
2023-08-21T03:35:06.126Z,8.20
2023-08-21T03:37:33.256Z,8.55
2023-08-21T03:40:00.454Z,8.32
2023-08-21T03:42:27.653Z,8.38
2023-08-21T03:44:54.875Z,8.57
2023-08-21T03:47:22.398Z,8.27
2023-08-21T03:49:49.690Z,8.63
2023-08-21T03:52:16.729Z,8.82
2023-08-21T03:54:43.875Z,8.98
2023-08-21T03:57:10.901Z,8.35
2023-08-21T03:59:38.161Z,8.52
2023-08-21T04:02:05.414Z,9.07
2023-08-21T04:04:32.620Z,8.65
2023-08-21T04:06:59.633Z,8.27
2023-08-21T04:09:26.653Z,8.90
2023-08-21T04:11:53.696Z,8.60
2023-08-21T04:14:20.921Z,8.68
2023-08-21T04:16:47.938Z,8.90
2023-08-21T04:19:14.999Z,8.70
2023-08-21T04:21:42.117Z,8.70
2023-08-21T04:24:09.186Z,8.95
2023-08-21T04:26:36.182Z,9.20
2023-08-21T04:29:03.388Z,8.65
2023-08-21T04:31:30.495Z,8.77
2023-08-21T04:33:57.616Z,9.43
2023-08-21T04:36:25.856Z,9.30
2023-08-21T04:38:52.887Z,8.88
2023-08-21T04:41:19.940Z,9.50
2023-08-21T04:43:46.931Z,9.15
2023-08-21T04:46:14.241Z,9.10
2023-08-21T04:48:41.435Z,8.98
2023-08-21T04:51:08.473Z,9.55
2023-08-21T04:53:35.402Z,9.75
2023-08-21T04:56:02.635Z,8.55
2023-08-21T04:58:29.658Z,9.77
2023-08-21T05:00:56.824Z,9.20
2023-08-21T05:03:24.166Z,9.07
2023-08-21T05:05:57.602Z,9.18
2023-08-21T05:08:25.822Z,9.53
2023-08-21T05:10:57.400Z,9.48
2023-08-21T05:13:24.554Z,9.13
2023-08-21T05:15:58.500Z,9.10
2023-08-21T05:18:26.526Z,9.57
2023-08-21T05:20:55.953Z,9.60
2023-08-21T05:23:23.567Z,9.05
2023-08-21T05:25:50.675Z,9.68
2023-08-21T05:28:17.731Z,9.48
2023-08-21T05:30:47.547Z,8.82
2023-08-21T05:33:14.687Z,9.35
2023-08-21T05:35:42.767Z,9.10
2023-08-21T05:38:09.728Z,8.75
2023-08-21T05:40:36.862Z,9.02
2023-08-21T05:43:04.378Z,8.82
2023-08-21T05:45:31.583Z,9.15
2023-08-21T05:47:58.736Z,8.93
2023-08-21T05:50:26.218Z,9.27
2023-08-21T05:52:55.548Z,8.50
2023-08-21T05:55:22.632Z,9.25
2023-08-21T05:57:49.915Z,9.75
2023-08-21T06:00:17.356Z,10.13
2023-08-21T06:02:44.566Z,9.20
2023-08-21T06:05:11.594Z,8.90
2023-08-21T06:07:38.596Z,9.48
2023-08-21T06:10:06.048Z,8.82
2023-08-21T06:12:33.032Z,9.07
2023-08-21T06:15:00.218Z,9.02
2023-08-21T06:17:28.926Z,9.48
2023-08-21T06:19:56.957Z,9.77
2023-08-21T06:22:24.115Z,9.02
2023-08-21T06:24:51.016Z,8.57
2023-08-21T06:27:18.378Z,9.00
2023-08-21T06:29:45.245Z,8.93
2023-08-21T06:32:12.233Z,8.45
2023-08-21T06:34:39.113Z,8.68
2023-08-21T06:37:06.166Z,8.05
2023-08-21T06:39:34.776Z,8.57
2023-08-21T06:42:02.151Z,7.95
2023-08-21T06:44:29.114Z,7.68
2023-08-21T06:46:56.153Z,8.43
2023-08-21T06:49:23.669Z,8.13
2023-08-21T06:51:51.112Z,7.53
2023-08-21T06:54:19.097Z,8.10
2023-08-21T06:56:45.991Z,7.80
2023-08-21T06:59:13.028Z,8.15
2023-08-21T07:01:40.118Z,7.13
2023-08-21T07:04:07.197Z,8.77
2023-08-21T07:06:34.316Z,7.95
2023-08-21T07:09:01.679Z,7.55
2023-08-21T07:11:28.716Z,7.07
2023-08-21T07:13:56.299Z,7.35
2023-08-21T07:16:24.244Z,7.50
2023-08-21T07:18:51.328Z,7.45
2023-08-21T07:21:31.461Z,7.20
2023-08-21T07:24:00.438Z,7.50
2023-08-21T07:26:27.602Z,7.10
2023-08-21T07:28:54.617Z,7.55
2023-08-21T07:31:21.786Z,7.55
2023-08-21T07:33:48.856Z,7.07
2023-08-21T07:36:19.252Z,7.40
2023-08-21T07:38:46.521Z,6.95
2023-08-21T07:41:14.634Z,6.85
2023-08-21T07:43:43.345Z,7.13
2023-08-21T07:46:19.837Z,6.70
2023-08-21T07:48:47.369Z,6.53
2023-08-21T07:51:15.338Z,6.57
2023-08-21T07:53:42.654Z,7.13
2023-08-21T07:56:09.766Z,6.90
2023-08-21T07:58:36.798Z,6.70
2023-08-21T08:01:06.018Z,6.85
2023-08-21T08:03:33.912Z,6.20
2023-08-21T08:06:01.057Z,6.43
2023-08-21T08:08:28.088Z,6.10
2023-08-21T08:10:55.255Z,7.30
2023-08-21T08:13:22.607Z,5.78
2023-08-21T08:15:50.061Z,6.38
2023-08-21T08:18:17.138Z,5.88
2023-08-21T08:20:44.083Z,6.07
2023-08-21T08:23:11.138Z,5.97
2023-08-21T08:25:38.267Z,6.45
2023-08-21T08:28:05.568Z,5.60
2023-08-21T08:30:32.695Z,5.45
2023-08-21T08:32:59.834Z,5.55
2023-08-21T08:35:27.444Z,5.70
2023-08-21T08:37:54.440Z,6.13
2023-08-21T08:40:21.576Z,6.10
2023-08-21T08:42:49.175Z,5.70
2023-08-21T08:45:19.720Z,5.65
2023-08-21T08:47:48.173Z,5.47
2023-08-21T08:50:16.205Z,5.57
2023-08-21T08:52:44.276Z,5.68
2023-08-21T08:55:12.353Z,5.35
2023-08-21T08:57:39.417Z,5.72
2023-08-21T09:00:07.299Z,5.68
2023-08-21T09:02:34.961Z,5.60
2023-08-21T09:05:02.599Z,5.18
2023-08-21T09:07:29.677Z,5.45
2023-08-21T09:09:57.347Z,4.68
2023-08-21T09:12:25.539Z,5.57
2023-08-21T09:14:52.556Z,4.90
2023-08-21T09:17:19.888Z,4.80
2023-08-21T09:19:47.173Z,4.80
2023-08-21T09:22:17.043Z,4.97
2023-08-21T09:25:08.038Z,5.10
2023-08-21T09:27:36.772Z,5.30
2023-08-21T09:30:10.117Z,5.05
2023-08-21T09:32:57.124Z,4.43
2023-08-21T09:35:25.230Z,4.60
2023-08-21T09:37:54.324Z,4.43
2023-08-21T09:40:23.595Z,4.55
2023-08-21T09:42:55.412Z,4.78
2023-08-21T09:45:30.877Z,4.70
2023-08-21T09:47:59.808Z,4.93
2023-08-21T09:50:29.682Z,4.50
2023-08-21T09:52:59.262Z,4.53
2023-08-21T09:55:29.239Z,4.80
2023-08-21T09:58:00.730Z,4.70
2023-08-21T10:00:30.906Z,4.63
2023-08-21T10:03:03.591Z,4.60
2023-08-21T10:05:33.095Z,4.53
2023-08-21T10:08:05.518Z,4.50
2023-08-21T10:10:34.379Z,4.80
2023-08-21T10:13:01.771Z,4.55
2023-08-21T10:15:34.888Z,4.68
2023-08-21T10:18:24.868Z,4.45
2023-08-21T10:20:53.765Z,5.32
2023-08-21T10:23:31.928Z,4.80
2023-08-21T10:26:06.189Z,4.65
2023-08-21T10:29:04.121Z,4.13
2023-08-21T10:31:40.676Z,4.45
2023-08-21T10:34:13.870Z,4.32
2023-08-21T10:36:43.817Z,4.53
2023-08-21T10:39:20.732Z,4.82
2023-08-21T10:41:59.382Z,4.38
2023-08-21T10:44:50.185Z,4.60
2023-08-21T10:47:22.556Z,4.45
2023-08-21T10:49:54.444Z,4.53
2023-08-21T10:52:28.217Z,4.60
2023-08-21T10:54:59.676Z,4.30
2023-08-21T10:57:30.840Z,4.30
2023-08-21T10:59:59.542Z,4.07
2023-08-21T11:02:30.768Z,4.38
2023-08-21T11:04:59.610Z,4.10
2023-08-21T11:07:27.900Z,4.70
2023-08-21T11:09:55.167Z,4.35
2023-08-21T11:12:24.537Z,4.43
2023-08-21T11:14:52.736Z,4.30
2023-08-21T11:17:20.019Z,9.48
2023-08-21T11:19:49.572Z,4.30
2023-08-21T11:22:17.402Z,3.88
2023-08-21T11:24:47.004Z,4.20
2023-08-21T11:27:19.560Z,4.25
2023-08-21T11:29:48.599Z,4.10
2023-08-21T11:32:23.770Z,3.85
2023-08-21T11:34:55.826Z,4.13
2023-08-21T11:37:26.103Z,3.97
2023-08-21T11:39:57.667Z,4.13
2023-08-21T11:42:31.916Z,4.00
2023-08-21T11:45:01.140Z,4.10
2023-08-21T11:47:36.169Z,4.20
2023-08-21T11:50:08.379Z,4.40
2023-08-21T11:52:39.218Z,4.05
2023-08-21T11:55:12.666Z,3.97
2023-08-21T12:00:23.652Z,4.68
2023-08-21T12:02:58.759Z,4.18
2023-08-21T12:05:27.151Z,4.03
2023-08-21T12:07:55.132Z,3.90
2023-08-21T12:10:26.847Z,4.00
2023-08-21T12:12:54.594Z,4.20
2023-08-21T12:15:22.307Z,3.95
2023-08-21T12:17:49.252Z,4.35
2023-08-21T12:20:16.370Z,4.13
2023-08-21T12:22:46.074Z,3.80
2023-08-21T12:25:14.451Z,4.20
2023-08-21T12:27:41.786Z,4.15
2023-08-21T12:30:09.339Z,3.70
2023-08-21T12:32:36.317Z,4.20
2023-08-21T12:35:05.474Z,3.97
2023-08-21T12:37:32.910Z,4.00
2023-08-21T12:40:00.052Z,4.45
2023-08-21T12:42:29.833Z,7.43
2023-08-21T12:44:56.901Z,4.38
2023-08-21T12:47:23.997Z,3.97
2023-08-21T12:49:53.319Z,4.20
2023-08-21T12:52:20.482Z,4.22
2023-08-21T12:54:49.590Z,4.30
2023-08-21T12:57:17.973Z,4.30
2023-08-21T12:59:44.954Z,4.30
2023-08-21T13:02:12.027Z,3.78
2023-08-21T13:04:39.218Z,3.70
2023-08-21T13:07:06.477Z,3.80
2023-08-21T13:09:34.916Z,3.70
2023-08-21T13:12:02.087Z,3.97
2023-08-21T13:14:32.336Z,3.80
2023-08-21T13:16:59.876Z,3.92
2023-08-21T13:19:27.056Z,4.03
2023-08-21T13:21:55.527Z,3.58
2023-08-21T13:24:22.938Z,3.72
2023-08-21T13:26:49.930Z,3.63
2023-08-21T13:29:17.128Z,3.83
2023-08-21T13:31:44.104Z,3.80
2023-08-21T13:34:11.430Z,3.47
2023-08-21T13:36:40.795Z,3.42
2023-08-21T13:39:08.424Z,3.63
2023-08-21T13:41:35.329Z,3.50
2023-08-21T13:44:02.463Z,3.33
2023-08-21T13:46:29.486Z,3.60
2023-08-21T13:48:56.425Z,3.22
2023-08-21T13:51:23.453Z,4.03
2023-08-21T13:53:50.608Z,3.38
2023-08-21T13:56:17.546Z,5.85
2023-08-21T13:58:44.561Z,4.18
2023-08-21T14:01:11.593Z,5.55
2023-08-21T14:03:38.798Z,3.25
2023-08-21T14:06:05.816Z,3.60
2023-08-21T14:08:32.969Z,3.50
2023-08-21T14:11:00.150Z,3.70
2023-08-21T14:13:27.113Z,3.30
2023-08-21T14:15:54.503Z,3.25
2023-08-21T14:18:21.707Z,3.58
2023-08-21T14:20:48.815Z,3.55
2023-08-21T14:23:15.886Z,3.30
2023-08-21T14:25:42.861Z,3.45
2023-08-21T14:28:09.785Z,3.33
2023-08-21T14:30:36.745Z,3.80
2023-08-21T14:33:04.297Z,3.53
2023-08-21T14:35:31.384Z,3.35
2023-08-21T14:37:58.452Z,3.47
2023-08-21T14:40:28.953Z,3.70
2023-08-21T14:42:55.840Z,3.72
2023-08-21T14:45:22.928Z,3.55
2023-08-21T14:47:50.144Z,3.80
2023-08-21T14:50:17.379Z,3.33
2023-08-21T14:52:44.569Z,3.78
2023-08-21T14:55:11.626Z,3.65
2023-08-21T14:57:38.562Z,3.70
2023-08-21T15:00:06.352Z,3.67
2023-08-21T15:02:36.168Z,4.00
2023-08-21T15:05:07.620Z,3.95
2023-08-21T15:07:34.741Z,3.40
2023-08-21T15:10:02.203Z,3.40
2023-08-21T15:12:29.161Z,3.80
2023-08-21T15:14:56.237Z,3.55
2023-08-21T15:17:23.268Z,3.78
2023-08-21T15:19:50.568Z,3.72
2023-08-21T15:22:17.958Z,3.40
2023-08-21T15:24:44.932Z,3.63
2023-08-21T15:27:13.881Z,3.63
2023-08-21T15:29:40.998Z,3.55
2023-08-21T15:32:08.355Z,3.42
2023-08-21T15:34:35.395Z,3.70
2023-08-21T15:37:02.713Z,3.40
2023-08-21T15:39:29.833Z,3.83
2023-08-21T15:41:56.808Z,3.72
2023-08-21T15:44:23.822Z,3.90
2023-08-21T15:46:55.333Z,4.18
2023-08-21T15:49:33.028Z,4.20
2023-08-21T15:52:00.068Z,4.10
2023-08-21T15:54:34.365Z,3.60
2023-08-21T15:57:05.362Z,4.43
2023-08-21T15:59:32.385Z,4.05
2023-08-21T16:02:01.590Z,4.40
2023-08-21T16:04:28.645Z,4.00
2023-08-21T16:06:55.703Z,4.30
2023-08-21T16:09:22.870Z,4.47
2023-08-21T16:11:50.001Z,3.60
2023-08-21T16:14:18.797Z,4.38
2023-08-21T16:16:45.965Z,4.35
2023-08-21T16:19:13.657Z,4.60
2023-08-21T16:21:40.799Z,4.35
2023-08-21T16:24:08.151Z,4.35
2023-08-21T16:26:35.323Z,4.13
2023-08-21T16:29:02.244Z,4.38
2023-08-21T16:31:29.333Z,3.90
2023-08-21T16:33:56.441Z,4.10
2023-08-21T16:36:23.769Z,4.05
2023-08-21T16:38:50.749Z,4.38
2023-08-21T16:41:17.799Z,4.60
2023-08-21T16:43:44.735Z,4.20
2023-08-21T16:46:14.053Z,4.28
2023-08-21T16:48:41.036Z,5.00
2023-08-21T16:51:08.034Z,4.30
2023-08-21T16:53:35.034Z,4.30
2023-08-21T16:56:04.363Z,4.35
2023-08-21T16:58:31.340Z,3.92
2023-08-21T17:00:58.297Z,4.20
2023-08-21T17:03:25.773Z,4.63
2023-08-21T17:05:53.552Z,4.10
2023-08-21T17:08:20.635Z,4.30
2023-08-21T17:10:47.728Z,4.03
2023-08-21T17:13:14.692Z,4.28
2023-08-21T17:15:41.809Z,3.92
2023-08-21T17:18:09.045Z,4.40
2023-08-21T17:20:36.685Z,3.97
2023-08-21T17:23:04.284Z,3.97
2023-08-21T17:25:31.500Z,4.40
2023-08-21T17:27:58.626Z,4.30
2023-08-21T17:30:28.492Z,4.50
2023-08-21T17:32:57.000Z,4.50
2023-08-21T17:35:24.062Z,4.43
2023-08-21T17:37:51.011Z,6.75
2023-08-21T17:40:18.805Z,4.80
2023-08-21T17:42:45.987Z,4.60
2023-08-21T17:45:13.223Z,5.40
2023-08-21T17:47:40.468Z,5.43
2023-08-21T17:50:08.351Z,4.53
2023-08-21T17:52:35.360Z,4.30
2023-08-21T17:55:02.385Z,4.72
2023-08-21T17:57:29.298Z,4.40
2023-08-21T17:59:56.687Z,4.03
2023-08-21T18:02:27.209Z,4.30
2023-08-21T18:04:55.273Z,4.22
2023-08-21T18:07:22.345Z,4.30
2023-08-21T18:09:49.347Z,4.40
2023-08-21T18:12:16.307Z,4.25
2023-08-21T18:14:43.299Z,4.18
2023-08-21T18:17:14.362Z,4.10
2023-08-21T18:19:47.380Z,4.40
2023-08-21T18:22:16.097Z,4.05
2023-08-21T18:24:43.476Z,4.53
2023-08-21T18:27:10.858Z,4.13
2023-08-21T18:29:39.430Z,4.40
2023-08-21T18:32:07.749Z,4.45
2023-08-21T18:34:40.587Z,4.22
2023-08-21T18:37:09.502Z,4.15
2023-08-21T18:39:36.755Z,4.20
2023-08-21T18:42:03.895Z,4.30
2023-08-21T18:44:30.853Z,4.22
2023-08-21T18:46:59.376Z,4.40
2023-08-21T18:49:26.678Z,3.97
2023-08-21T18:51:54.590Z,4.35
2023-08-21T18:54:24.705Z,4.13
2023-08-21T18:56:53.010Z,4.40
2023-08-21T18:59:20.069Z,4.47
2023-08-21T19:01:47.313Z,4.20
2023-08-21T19:04:14.483Z,4.30
2023-08-21T19:06:51.701Z,4.50
2023-08-21T19:09:20.357Z,4.30
2023-08-21T19:11:47.434Z,4.30
2023-08-21T19:14:14.393Z,4.07
2023-08-21T19:16:41.515Z,4.25
2023-08-21T19:19:08.540Z,4.45
2023-08-21T19:21:35.668Z,4.30
2023-08-21T19:24:03.111Z,4.15
2023-08-21T19:26:30.059Z,4.28
2023-08-21T19:29:00.597Z,4.40
2023-08-21T19:31:29.855Z,4.25
2023-08-21T19:33:58.191Z,4.70
2023-08-21T19:36:28.033Z,4.72
2023-08-21T19:38:55.356Z,4.25
2023-08-21T19:41:22.560Z,4.72
2023-08-21T19:43:49.915Z,3.95
2023-08-21T19:46:17.087Z,4.53
2023-08-21T19:48:44.227Z,4.50
2023-08-21T19:51:11.942Z,4.18
2023-08-21T19:53:39.106Z,4.60
2023-08-21T19:56:06.117Z,4.43
2023-08-21T19:58:33.123Z,4.18
2023-08-21T20:01:00.197Z,4.20
2023-08-21T20:03:27.714Z,4.22
2023-08-21T20:06:04.693Z,4.10
2023-08-21T20:08:32.576Z,4.93
2023-08-21T20:10:59.927Z,4.47
2023-08-21T20:13:27.879Z,4.55
2023-08-21T20:15:55.685Z,4.90
2023-08-21T20:18:23.034Z,4.55
2023-08-21T20:20:51.303Z,4.47
2023-08-21T20:23:18.964Z,4.20
2023-08-21T20:25:47.485Z,4.60
2023-08-21T20:28:15.034Z,4.82
2023-08-21T20:30:42.404Z,5.13
2023-08-21T20:33:09.661Z,4.47
2023-08-21T20:35:36.681Z,5.45
2023-08-21T20:38:04.263Z,5.00
2023-08-21T20:40:31.284Z,4.47
2023-08-21T20:42:58.457Z,4.85
2023-08-21T20:45:25.623Z,5.40
2023-08-21T20:47:53.143Z,4.85
2023-08-21T20:50:20.975Z,4.70
2023-08-21T20:52:49.234Z,4.95
2023-08-21T20:55:16.218Z,4.80
2023-08-21T20:57:43.398Z,4.57
2023-08-21T21:00:13.111Z,4.70
2023-08-21T21:02:40.252Z,5.00
2023-08-21T21:05:08.806Z,4.68
2023-08-21T21:07:36.442Z,4.47
2023-08-21T21:10:05.119Z,4.63
2023-08-21T21:12:32.681Z,4.50
2023-08-21T21:14:59.703Z,5.18
2023-08-21T21:17:26.962Z,5.13
2023-08-21T21:19:53.986Z,4.60
2023-08-21T21:22:21.127Z,5.10
2023-08-21T21:24:48.200Z,4.82
2023-08-21T21:27:15.319Z,5.10
2023-08-21T21:29:42.376Z,4.90
2023-08-21T21:32:09.560Z,4.63
2023-08-21T21:34:36.674Z,5.10
2023-08-21T21:37:03.881Z,5.18
2023-08-21T21:39:30.953Z,4.95
2023-08-21T21:41:58.086Z,4.85
2023-08-21T21:44:25.920Z,5.10
2023-08-21T21:46:53.154Z,5.47
2023-08-21T21:49:20.335Z,5.10
2023-08-21T21:51:47.445Z,5.38
2023-08-21T21:54:14.501Z,5.97
2023-08-21T21:56:41.696Z,5.65
2023-08-21T21:59:08.832Z,5.72
2023-08-21T22:01:36.738Z,5.63
2023-08-21T22:04:04.277Z,5.57
2023-08-21T22:06:32.013Z,5.70
2023-08-21T22:08:59.318Z,5.72
2023-08-21T22:11:26.286Z,5.60
2023-08-21T22:13:53.957Z,5.72
2023-08-21T22:16:21.234Z,5.68
2023-08-21T22:18:48.603Z,6.07
2023-08-21T22:21:15.734Z,6.15
2023-08-21T22:23:42.950Z,5.47
2023-08-21T22:26:11.004Z,5.60
2023-08-21T22:28:38.194Z,5.75
2023-08-21T22:31:05.767Z,6.30
2023-08-21T22:33:33.000Z,5.80
2023-08-21T22:36:00.236Z,6.15
2023-08-21T22:38:28.961Z,5.72
2023-08-21T22:40:57.083Z,6.07
2023-08-21T22:43:24.498Z,6.70
2023-08-21T22:45:51.613Z,6.65
2023-08-21T22:48:18.797Z,5.95
2023-08-21T22:50:46.317Z,6.30
2023-08-21T22:53:13.666Z,6.72
2023-08-21T22:55:40.746Z,6.10
2023-08-21T22:58:07.951Z,6.32
2023-08-21T23:00:35.540Z,6.57
2023-08-21T23:03:02.695Z,6.07
2023-08-21T23:05:30.269Z,6.13
2023-08-21T23:07:57.608Z,6.43
2023-08-21T23:10:24.955Z,6.80
2023-08-21T23:12:52.215Z,6.32
2023-08-21T23:15:19.256Z,6.65
2023-08-21T23:17:46.447Z,6.35
2023-08-21T23:20:13.631Z,6.35
2023-08-21T23:22:40.783Z,6.72
2023-08-21T23:25:09.367Z,6.30
2023-08-21T23:27:36.489Z,5.82
2023-08-21T23:30:03.659Z,6.40
2023-08-21T23:32:30.834Z,6.80
2023-08-21T23:34:57.844Z,6.63
2023-08-21T23:37:24.985Z,6.53
2023-08-21T23:39:52.150Z,6.55
2023-08-21T23:42:19.654Z,6.60
2023-08-21T23:44:46.802Z,6.57
2023-08-21T23:47:13.937Z,6.88
2023-08-21T23:49:41.144Z,7.18
2023-08-21T23:52:08.426Z,6.32
2023-08-21T23:54:35.626Z,7.40
2023-08-21T23:57:02.908Z,6.82
2023-08-21T23:59:30.047Z,7.28
